Time;durP1;ratioP1;P1;durP2;ratioP2;P2;SDS_P1;SDS_P2;PMS_P1;PMS_P2;Temp;Humidity;BMP_temperature;BMP_pressure;BME280_temperature;BME280_humidity;BME280_pressure;Samples;Min_cycle;Max_cycle;Signal;HPM_P1;HPM_P2
2024/03/06 00:01:47;;;;;;;40.30;25.05;;;8.10;99.90;;;;;;5088034;28;20138;-74
2024/03/06 00:04:13;;;;;;;34.40;23.25;;;8.10;99.90;;;;;;5087800;28;20023;-74
2024/03/06 00:06:39;;;;;;;32.65;22.73;;;8.00;99.90;;;;;;5088563;28;20472;-75
2024/03/06 00:09:04;;;;;;;36.53;23.92;;;8.10;99.90;;;;;;5088389;28;20028;-75
2024/03/06 00:11:30;;;;;;;35.45;24.02;;;8.00;99.90;;;;;;5088585;28;20558;-74
2024/03/06 00:13:57;;;;;;;36.13;23.63;;;8.00;99.90;;;;;;5087810;28;20024;-74
2024/03/06 00:16:23;;;;;;;33.88;23.38;;;8.00;99.90;;;;;;5070082;28;20024;-74
2024/03/06 00:18:48;;;;;;;41.42;26.23;;;7.90;99.90;;;;;;5087026;28;20024;-74
2024/03/06 00:21:15;;;;;;;35.97;23.27;;;7.90;99.90;;;;;;5088200;28;20020;-75
2024/03/06 00:23:40;;;;;;;36.00;24.45;;;7.90;99.90;;;;;;5087254;28;20028;-73
2024/03/06 00:26:06;;;;;;;38.80;25.67;;;7.80;99.90;;;;;;5069678;28;20043;-74
2024/03/06 00:28:32;;;;;;;35.90;24.15;;;7.80;99.90;;;;;;5087261;28;20548;-75
2024/03/06 00:30:57;;;;;;;36.15;25.38;;;7.80;99.90;;;;;;5069443;28;20047;-74
2024/03/06 00:33:23;;;;;;;36.67;25.40;;;7.70;99.90;;;;;;5087165;28;20023;-75
2024/03/06 00:35:49;;;;;;;38.35;26.08;;;7.70;99.90;;;;;;5081057;28;20526;-75
2024/03/06 00:38:15;;;;;;;36.60;26.13;;;7.70;99.90;;;;;;5087252;28;20028;-74
2024/03/06 00:40:40;;;;;;;40.20;24.77;;;7.60;99.90;;;;;;5087572;28;20392;-74
2024/03/06 00:43:06;;;;;;;38.88;25.90;;;7.60;99.90;;;;;;5086442;28;20067;-74
2024/03/06 00:45:32;;;;;;;37.90;24.40;;;7.50;99.90;;;;;;5069026;28;20059;-74
2024/03/06 00:47:57;;;;;;;36.65;24.52;;;7.50;99.90;;;;;;5086656;28;20027;-74
2024/03/06 00:50:23;;;;;;;38.83;24.70;;;7.50;99.90;;;;;;5086976;28;20558;-74
2024/03/06 00:52:49;;;;;;;34.03;23.58;;;7.40;99.90;;;;;;5086518;28;20032;-74
2024/03/06 00:55:15;;;;;;;36.30;24.20;;;7.40;99.90;;;;;;5068822;28;20047;-75
2024/03/06 00:57:41;;;;;;;38.78;24.75;;;7.40;99.90;;;;;;5086754;28;20556;-75
2024/03/06 01:00:10;;;;;;;37.83;24.80;;;7.30;99.90;;;;;;5069013;28;20031;-74
2024/03/06 01:02:39;;;;;;;38.92;25.00;;;7.30;99.90;;;;;;5068344;28;20028;-75
2024/03/06 01:05:06;;;;;;;38.28;25.38;;;7.30;99.90;;;;;;5087332;28;20100;-74
2024/03/06 01:07:32;;;;;;;37.45;25.75;;;7.30;99.90;;;;;;5068747;28;20481;-74
2024/03/06 01:09:58;;;;;;;37.50;25.05;;;7.30;99.90;;;;;;5086833;28;20038;-74
2024/03/06 01:12:24;;;;;;;36.83;25.02;;;7.20;99.90;;;;;;5087689;28;20038;-74
2024/03/06 01:14:50;;;;;;;42.72;28.05;;;7.20;99.90;;;;;;5086750;28;20016;-74
2024/03/06 01:17:16;;;;;;;41.58;27.20;;;7.20;99.90;;;;;;5088804;28;20031;-74
2024/03/06 01:19:44;;;;;;;38.20;25.50;;;7.10;99.90;;;;;;5087977;28;20012;-73
2024/03/06 01:22:11;;;;;;;34.75;23.98;;;7.10;99.90;;;;;;5071679;28;20044;-74
2024/03/06 01:24:36;;;;;;;39.58;25.45;;;7.10;99.90;;;;;;5089294;28;20077;-74
2024/03/06 01:27:02;;;;;;;39.33;25.10;;;7.10;99.90;;;;;;5088398;28;20020;-74
2024/03/06 01:29:31;;;;;;;37.42;24.92;;;7.00;99.90;;;;;;5086083;28;20020;-74
2024/03/06 01:31:57;;;;;;;39.63;25.30;;;7.00;99.90;;;;;;5087746;28;20035;-74
2024/03/06 01:34:23;;;;;;;40.85;25.08;;;7.00;99.90;;;;;;5079486;28;20209;-74
2024/03/06 01:36:48;;;;;;;34.50;23.85;;;7.00;99.90;;;;;;5086727;28;20482;-74
2024/03/06 01:39:14;;;;;;;34.92;24.17;;;7.00;99.90;;;;;;5086343;28;20576;-74
2024/03/06 01:41:50;;;;;;;38.80;25.73;;;6.90;99.90;;;;;;5071981;28;20020;-74
2024/03/06 01:44:20;;;;;;;35.67;24.23;;;6.90;99.90;;;;;;5086438;28;20024;-74
2024/03/06 01:46:46;;;;;;;36.08;24.15;;;6.90;99.90;;;;;;5086300;28;20039;-74
2024/03/06 01:49:15;;;;;;;37.10;23.83;;;6.90;99.90;;;;;;5067635;28;20078;-74
2024/03/06 01:51:45;;;;;;;36.10;24.48;;;6.80;99.90;;;;;;5086390;28;20054;-74
2024/03/06 01:54:11;;;;;;;40.72;26.88;;;6.80;99.90;;;;;;5085523;28;20437;-74
2024/03/06 01:56:42;;;;;;;37.50;23.85;;;6.70;99.90;;;;;;5086057;28;20027;-75
2024/03/06 01:59:08;;;;;;;45.13;26.30;;;6.70;99.90;;;;;;5086062;28;20126;-74
2024/03/06 02:01:33;;;;;;;37.78;25.30;;;6.70;99.90;;;;;;5068552;28;20111;-74
2024/03/06 02:04:00;;;;;;;38.20;24.65;;;6.70;99.90;;;;;;5085882;28;20016;-74
2024/03/06 02:06:26;;;;;;;35.83;24.35;;;6.70;99.90;;;;;;5086682;28;20043;-74
2024/03/06 02:08:52;;;;;;;36.28;26.15;;;6.70;99.90;;;;;;5071366;28;20028;-75
2024/03/06 02:11:18;;;;;;;37.90;25.35;;;6.60;99.90;;;;;;5067764;28;20039;-74
2024/03/06 02:13:44;;;;;;;33.30;22.20;;;6.60;99.90;;;;;;5085497;28;20031;-74
2024/03/06 02:16:10;;;;;;;38.85;24.77;;;6.60;99.90;;;;;;5086301;28;20020;-74
2024/03/06 02:18:36;;;;;;;32.20;23.08;;;6.60;99.90;;;;;;5085552;28;20020;-74
2024/03/06 02:21:04;;;;;;;33.63;23.13;;;6.60;99.90;;;;;;5086326;28;20020;-74
2024/03/06 02:23:30;;;;;;;35.60;24.13;;;6.50;99.90;;;;;;5085433;28;20055;-74
2024/03/06 02:25:56;;;;;;;40.35;26.00;;;6.50;99.90;;;;;;5086042;28;20032;-74
2024/03/06 02:28:22;;;;;;;36.33;23.88;;;6.50;99.90;;;;;;5085669;28;20621;-74
2024/03/06 02:30:51;;;;;;;30.80;21.08;;;6.50;99.90;;;;;;5067619;28;20028;-74
2024/03/06 02:33:17;;;;;;;35.00;23.50;;;6.40;99.90;;;;;;5085527;28;20603;-74
2024/03/06 02:35:44;;;;;;;32.33;22.58;;;6.40;99.90;;;;;;5067608;28;20031;-74
2024/03/06 02:38:10;;;;;;;36.03;23.55;;;6.40;99.90;;;;;;5067153;28;20028;-73
2024/03/06 02:40:36;;;;;;;33.22;21.77;;;6.30;99.90;;;;;;5085994;28;20024;-73
2024/03/06 02:43:02;;;;;;;36.22;24.00;;;6.30;99.90;;;;;;5067404;28;20024;-74
2024/03/06 02:45:28;;;;;;;32.28;21.85;;;6.30;99.90;;;;;;5086033;28;20020;-74
2024/03/06 02:47:54;;;;;;;33.28;23.60;;;6.30;99.90;;;;;;5085701;28;20492;-74
2024/03/06 02:50:20;;;;;;;33.85;21.90;;;6.20;99.90;;;;;;5085085;28;20040;-73
2024/03/06 02:52:46;;;;;;;32.85;20.63;;;6.20;99.90;;;;;;5086049;28;20028;-73
2024/03/06 02:55:12;;;;;;;32.70;22.15;;;6.20;99.90;;;;;;5085231;28;20021;-74
2024/03/06 02:57:38;;;;;;;33.38;21.77;;;6.20;99.90;;;;;;5085543;28;20067;-75
2024/03/06 03:00:04;;;;;;;32.83;22.77;;;6.10;99.90;;;;;;5085364;28;20020;-74
2024/03/06 03:02:31;;;;;;;31.02;21.20;;;6.10;99.90;;;;;;5067349;28;20024;-74
2024/03/06 03:04:57;;;;;;;37.95;23.98;;;6.10;99.90;;;;;;5085645;28;20086;-74
2024/03/06 03:07:23;;;;;;;34.45;21.80;;;6.00;99.90;;;;;;5071197;28;20039;-74
2024/03/06 03:09:49;;;;;;;33.08;22.25;;;6.00;99.90;;;;;;5070444;28;20023;-74
2024/03/06 03:12:14;;;;;;;30.52;21.20;;;6.00;99.90;;;;;;5089123;28;20032;-74
2024/03/06 03:14:41;;;;;;;32.30;21.85;;;6.00;99.90;;;;;;5088607;28;20028;-74
2024/03/06 03:17:07;;;;;;;29.95;21.45;;;6.00;99.90;;;;;;5089394;28;20012;-74
2024/03/06 03:19:32;;;;;;;31.98;21.95;;;6.00;99.90;;;;;;5070147;28;20013;-74
2024/03/06 03:21:58;;;;;;;31.10;19.77;;;5.90;99.90;;;;;;5089092;28;20035;-74
2024/03/06 03:24:25;;;;;;;27.20;18.50;;;5.90;99.90;;;;;;5088468;28;20077;-74
2024/03/06 03:26:51;;;;;;;29.73;18.77;;;5.90;99.90;;;;;;5089205;28;20020;-74
2024/03/06 03:29:17;;;;;;;26.75;18.95;;;5.90;99.90;;;;;;5088853;28;20410;-74
2024/03/06 03:31:43;;;;;;;29.80;20.05;;;5.80;99.90;;;;;;5089353;28;20205;-74
2024/03/06 03:34:09;;;;;;;28.92;20.33;;;5.80;99.90;;;;;;5091974;28;20788;-74
2024/03/06 03:36:39;;;;;;;29.98;20.90;;;5.80;99.90;;;;;;5075791;28;20333;-74
2024/03/06 03:39:04;;;;;;;33.45;23.02;;;5.80;99.90;;;;;;5071611;28;20024;-74
2024/03/06 03:41:30;;;;;;;32.47;23.90;;;5.80;99.90;;;;;;5090061;28;20373;-74
2024/03/06 03:43:56;;;;;;;30.85;21.42;;;5.80;99.90;;;;;;5088227;28;20047;-74
2024/03/06 03:46:21;;;;;;;30.50;19.30;;;5.80;99.90;;;;;;5088750;28;20060;-74
2024/03/06 03:48:47;;;;;;;30.67;19.45;;;5.80;99.90;;;;;;5088057;28;20013;-74
2024/03/06 03:51:12;;;;;;;30.88;20.88;;;5.80;99.90;;;;;;5088316;28;20036;-74
2024/03/06 03:53:39;;;;;;;34.85;21.05;;;5.80;99.90;;;;;;5069613;28;20099;-73
2024/03/06 03:56:05;;;;;;;34.22;20.88;;;5.80;99.90;;;;;;5088493;28;20077;-74
2024/03/06 03:58:30;;;;;;;28.60;18.13;;;5.70;99.90;;;;;;5087744;28;20027;-74
2024/03/06 04:00:56;;;;;;;28.73;19.90;;;5.70;99.90;;;;;;5087957;28;20027;-74
2024/03/06 04:03:22;;;;;;;27.73;18.35;;;5.70;99.90;;;;;;5087738;28;20024;-74
2024/03/06 04:05:49;;;;;;;33.15;20.02;;;5.60;99.90;;;;;;5088115;28;20023;-74
2024/03/06 04:08:15;;;;;;;28.13;18.73;;;5.60;99.90;;;;;;5088407;28;20032;-74
2024/03/06 04:10:45;;;;;;;30.83;20.38;;;5.60;99.90;;;;;;5088027;28;20077;-74
2024/03/06 04:13:12;;;;;;;31.87;21.83;;;5.60;99.90;;;;;;5088054;28;20030;-74
2024/03/06 04:15:38;;;;;;;32.25;21.17;;;5.60;99.90;;;;;;5088084;28;20258;-74
2024/03/06 04:18:04;;;;;;;33.40;20.70;;;5.60;99.90;;;;;;5087930;28;20418;-74
2024/03/06 04:20:29;;;;;;;35.83;22.70;;;5.60;99.90;;;;;;5069497;28;20031;-74
2024/03/06 04:22:55;;;;;;;31.95;20.95;;;5.60;99.90;;;;;;5069714;28;20661;-74
2024/03/06 04:25:20;;;;;;;30.23;19.30;;;5.60;99.90;;;;;;5069577;28;20054;-74
2024/03/06 04:27:46;;;;;;;31.10;20.10;;;5.50;99.90;;;;;;5088265;28;20078;-74
2024/03/06 04:30:12;;;;;;;33.85;22.65;;;5.50;99.90;;;;;;5087580;28;20046;-74
2024/03/06 04:32:38;;;;;;;30.42;20.63;;;5.50;99.90;;;;;;5069454;28;20016;-73
2024/03/06 04:35:04;;;;;;;36.63;22.83;;;5.50;99.90;;;;;;5080267;28;20515;-74
2024/03/06 04:37:30;;;;;;;35.30;22.35;;;5.50;99.90;;;;;;5087879;28;20024;-74
2024/03/06 04:39:56;;;;;;;31.10;20.40;;;5.40;99.90;;;;;;5087260;28;20091;-74
2024/03/06 04:42:22;;;;;;;32.50;21.80;;;5.40;99.90;;;;;;5087907;28;20054;-74
2024/03/06 04:44:48;;;;;;;29.42;20.58;;;5.40;99.90;;;;;;5087026;28;20032;-75
2024/03/06 04:47:13;;;;;;;29.38;19.30;;;5.40;99.90;;;;;;5069131;28;20039;-75
2024/03/06 04:49:39;;;;;;;27.38;18.75;;;5.40;99.90;;;;;;5087111;28;20071;-74
2024/03/06 04:52:05;;;;;;;27.63;18.75;;;5.40;99.90;;;;;;5087827;28;20024;-74
2024/03/06 04:54:30;;;;;;;29.75;20.88;;;5.40;99.90;;;;;;5087370;28;20020;-75
2024/03/06 04:56:56;;;;;;;32.67;19.95;;;5.40;99.90;;;;;;5087404;28;20609;-73
2024/03/06 04:59:22;;;;;;;31.05;20.45;;;5.30;99.90;;;;;;5087195;28;20464;-74
2024/03/06 05:01:47;;;;;;;33.05;22.15;;;5.30;99.90;;;;;;5087152;28;20043;-74
2024/03/06 05:04:13;;;;;;;29.50;19.85;;;5.30;99.90;;;;;;5086831;28;20024;-74
2024/03/06 05:06:39;;;;;;;27.75;18.80;;;5.30;99.90;;;;;;5087196;28;20396;-74
2024/03/06 05:09:05;;;;;;;28.67;19.10;;;5.20;99.90;;;;;;5086884;28;20058;-74
2024/03/06 05:11:31;;;;;;;28.13;19.00;;;5.20;99.90;;;;;;5087162;28;20016;-74
2024/03/06 05:14:00;;;;;;;26.35;18.85;;;5.20;99.90;;;;;;5068340;28;20020;-73
2024/03/06 05:16:26;;;;;;;25.65;17.95;;;5.20;99.90;;;;;;5086996;28;20024;-74
2024/03/06 05:18:52;;;;;;;30.77;20.20;;;5.20;99.90;;;;;;5086156;28;20023;-74
2024/03/06 05:21:18;;;;;;;27.55;18.00;;;5.20;99.90;;;;;;5087179;28;20016;-74
2024/03/06 05:23:44;;;;;;;32.47;20.77;;;5.20;99.90;;;;;;5086299;28;20032;-74
2024/03/06 05:26:10;;;;;;;29.00;19.92;;;5.20;99.90;;;;;;5086983;28;20078;-74
2024/03/06 05:28:35;;;;;;;34.63;19.65;;;5.20;99.90;;;;;;5067401;28;20190;-74
2024/03/06 05:31:13;;;;;;;31.25;19.55;;;5.20;99.90;;;;;;5086836;28;20026;-74
2024/03/06 05:33:39;;;;;;;44.53;19.20;;;5.20;99.90;;;;;;5086432;28;20039;-74
2024/03/06 05:36:05;;;;;;;33.63;17.02;;;5.10;99.90;;;;;;5068248;28;20024;-74
2024/03/06 05:38:31;;;;;;;35.25;18.17;;;5.10;99.90;;;;;;5086637;28;20078;-74
2024/03/06 05:40:57;;;;;;;28.15;16.63;;;5.10;99.90;;;;;;5086911;28;20016;-74
2024/03/06 05:43:22;;;;;;;26.15;16.92;;;5.10;99.90;;;;;;5086385;28;20249;-74
2024/03/06 05:45:48;;;;;;;32.95;15.25;;;5.10;99.90;;;;;;5086103;28;20477;-73
2024/03/06 05:48:14;;;;;;;24.88;14.45;;;5.10;99.90;;;;;;5086586;28;20111;-74
2024/03/06 05:50:40;;;;;;;28.42;15.57;;;5.10;99.90;;;;;;5072510;28;20036;-74
2024/03/06 05:53:06;;;;;;;30.13;16.77;;;5.10;99.90;;;;;;5088352;28;20066;-74
2024/03/06 05:55:32;;;;;;;41.17;16.70;;;5.00;99.90;;;;;;5069307;28;20043;-74
2024/03/06 05:57:59;;;;;;;52.30;15.73;;;5.10;99.90;;;;;;5068677;28;20023;-74
2024/03/06 06:00:25;;;;;;;39.78;16.17;;;5.00;99.90;;;;;;5085852;28;20060;-74
2024/03/06 06:02:50;;;;;;;46.85;15.90;;;5.00;99.90;;;;;;5086185;28;20060;-74
2024/03/06 06:05:19;;;;;;;67.70;15.75;;;5.00;99.90;;;;;;5085841;28;20429;-74
2024/03/06 06:07:45;;;;;;;49.92;15.40;;;5.00;99.90;;;;;;5067928;28;20287;-74
2024/03/06 06:10:11;;;;;;;51.97;14.50;;;5.00;99.90;;;;;;5086112;28;20467;-74
2024/03/06 06:12:37;;;;;;;42.90;13.23;;;5.00;99.90;;;;;;5067587;28;20446;-73
2024/03/06 06:15:03;;;;;;;28.35;12.63;;;5.00;99.90;;;;;;5086227;28;20489;-74
2024/03/06 06:17:28;;;;;;;31.38;15.05;;;5.00;99.90;;;;;;5067954;28;20020;-74
2024/03/06 06:19:54;;;;;;;29.15;14.50;;;5.00;99.90;;;;;;5085811;28;20396;-74
2024/03/06 06:22:19;;;;;;;28.77;12.70;;;5.00;99.90;;;;;;5086204;28;20016;-74
2024/03/06 06:24:46;;;;;;;33.15;15.70;;;5.00;99.90;;;;;;5067195;28;20020;-74
2024/03/06 06:27:11;;;;;;;26.23;13.25;;;5.00;99.90;;;;;;5086622;28;20497;-74
2024/03/06 06:29:37;;;;;;;39.75;12.70;;;5.00;99.90;;;;;;5085743;28;20066;-74
2024/03/06 06:32:03;;;;;;;20.55;13.73;;;5.00;99.90;;;;;;5086656;28;20397;-72
2024/03/06 06:34:28;;;;;;;36.03;16.25;;;5.00;99.90;;;;;;5085893;28;20393;-74
2024/03/06 06:36:54;;;;;;;30.85;13.68;;;5.00;99.90;;;;;;5086346;28;20024;-74
2024/03/06 06:39:19;;;;;;;38.75;13.73;;;5.10;99.90;;;;;;5083795;28;20032;-74
2024/03/06 06:41:45;;;;;;;45.60;14.95;;;5.10;99.90;;;;;;5082397;28;20485;-74
2024/03/06 06:44:11;;;;;;;17.58;14.48;;;5.10;99.90;;;;;;5071426;28;20059;-73
2024/03/06 06:46:37;;;;;;;26.52;15.00;;;5.10;99.90;;;;;;5084360;28;20028;-74
2024/03/06 06:49:03;;;;;;;34.05;15.15;;;5.10;99.90;;;;;;5066143;28;20020;-73
2024/03/06 06:51:28;;;;;;;63.10;16.10;;;5.10;99.90;;;;;;5071476;28;20033;-74
2024/03/06 06:53:55;;;;;;;61.28;18.88;;;5.10;99.90;;;;;;5088206;28;20020;-73
2024/03/06 06:56:23;;;;;;;195.45;20.67;;;5.10;99.90;;;;;;5090760;28;20024;-73
2024/03/06 06:58:50;;;;;;;54.15;16.02;;;5.10;99.90;;;;;;5085573;28;20016;-74
2024/03/06 07:01:16;;;;;;;178.00;17.85;;;5.10;99.90;;;;;;5082261;28;20115;-73
2024/03/06 07:03:42;;;;;;;124.90;16.63;;;5.10;99.90;;;;;;5056949;28;20055;-74
2024/03/06 07:06:11;;;;;;;210.63;20.90;;;5.10;99.90;;;;;;5081140;28;20082;-74
2024/03/06 07:08:37;;;;;;;274.13;23.23;;;5.10;99.90;;;;;;5075952;28;20033;-74
2024/03/06 07:11:03;;;;;;;121.28;20.48;;;5.10;99.90;;;;;;5084235;28;20074;-74
2024/03/06 07:13:28;;;;;;;191.43;22.38;;;5.10;99.90;;;;;;5067262;28;20028;-74
2024/03/06 07:15:54;;;;;;;213.75;22.33;;;5.00;99.90;;;;;;5082929;28;20441;-74
2024/03/06 07:18:20;;;;;;;102.25;18.48;;;5.10;99.90;;;;;;5067801;28;20044;-74
2024/03/06 07:20:47;;;;;;;210.52;24.05;;;5.10;99.90;;;;;;5058234;28;20035;-74
2024/03/06 07:23:12;;;;;;;263.38;27.95;;;5.20;99.90;;;;;;5076536;28;20107;-73
2024/03/06 07:25:38;;;;;;;223.68;28.02;;;5.20;99.90;;;;;;5078808;28;20115;-74
2024/03/06 07:28:04;;;;;;;187.88;28.95;;;5.10;99.90;;;;;;5073299;28;20020;-74
2024/03/06 07:30:30;;;;;;;175.15;27.08;;;5.10;99.90;;;;;;5080059;28;20020;-74
2024/03/06 07:32:57;;;;;;;228.75;28.70;;;5.20;99.90;;;;;;5072197;28;20027;-73
2024/03/06 07:35:23;;;;;;;138.77;26.30;;;5.30;99.90;;;;;;5076017;28;20390;-73
2024/03/06 07:37:49;;;;;;;166.73;27.15;;;5.30;99.90;;;;;;5073604;28;20079;-73
2024/03/06 07:40:14;;;;;;;280.20;32.20;;;5.30;99.90;;;;;;5068802;28;20176;-74
2024/03/06 07:42:40;;;;;;;285.67;31.83;;;5.30;99.90;;;;;;5086135;28;20473;-73
2024/03/06 07:45:09;;;;;;;215.82;31.00;;;5.30;99.90;;;;;;5078054;28;20101;-73
2024/03/06 07:47:37;;;;;;;120.30;29.27;;;5.40;99.90;;;;;;5078664;28;20035;-74
2024/03/06 07:50:05;;;;;;;249.27;31.23;;;5.40;99.90;;;;;;5051698;28;20074;-73
2024/03/06 07:52:31;;;;;;;336.63;34.70;;;5.50;99.90;;;;;;5082753;28;20391;-74
2024/03/06 07:54:58;;;;;;;320.75;34.85;;;5.50;99.90;;;;;;5087727;28;20020;-72
2024/03/06 07:57:23;;;;;;;314.52;34.60;;;5.60;99.90;;;;;;5079997;28;20036;-73
2024/03/06 07:59:51;;;;;;;121.30;29.75;;;5.60;99.90;;;;;;5064163;28;20328;-73
2024/03/06 08:02:17;;;;;;;274.10;33.10;;;5.70;99.90;;;;;;5086135;28;20036;-71
2024/03/06 08:04:42;;;;;;;354.80;34.58;;;5.70;99.90;;;;;;5086114;28;20134;-73
2024/03/06 08:07:08;;;;;;;410.40;38.95;;;5.70;99.90;;;;;;5084323;28;20032;-74
2024/03/06 08:09:34;;;;;;;325.73;37.58;;;5.80;99.90;;;;;;5088772;28;20721;-74
2024/03/06 08:12:02;;;;;;;172.27;33.28;;;5.80;99.90;;;;;;5082685;28;20498;-73
2024/03/06 08:14:28;;;;;;;327.58;38.45;;;5.90;99.90;;;;;;5074272;28;20077;-74
2024/03/06 08:16:54;;;;;;;357.98;39.70;;;6.00;99.90;;;;;;5076157;28;20028;-73
2024/03/06 08:19:19;;;;;;;279.98;33.08;;;6.00;99.90;;;;;;5076562;28;20020;-74
2024/03/06 08:21:46;;;;;;;232.93;34.08;;;6.10;99.90;;;;;;5084837;28;20537;-74
2024/03/06 08:24:12;;;;;;;275.90;37.78;;;6.10;99.90;;;;;;5091366;28;20028;-74
2024/03/06 08:26:37;;;;;;;241.85;36.28;;;6.20;99.90;;;;;;5088177;28;20043;-75
2024/03/06 08:29:03;;;;;;;266.25;38.20;;;6.20;99.90;;;;;;5087474;28;20031;-75
2024/03/06 08:31:29;;;;;;;376.23;42.30;;;6.20;99.90;;;;;;5075600;28;20036;-75
2024/03/06 08:33:55;;;;;;;254.88;38.88;;;6.20;99.90;;;;;;5082975;28;20039;-75
2024/03/06 08:36:21;;;;;;;318.40;39.22;;;6.20;99.90;;;;;;5084812;28;20493;-75
2024/03/06 08:38:46;;;;;;;292.70;39.03;;;6.20;99.90;;;;;;5080585;28;20050;-74
2024/03/06 08:41:12;;;;;;;188.77;34.80;;;6.20;99.90;;;;;;5074377;28;20036;-74
2024/03/06 08:43:38;;;;;;;196.63;35.20;;;6.20;99.90;;;;;;5082536;28;20024;-74
2024/03/06 08:46:04;;;;;;;379.20;42.45;;;6.20;99.90;;;;;;5075219;28;20047;-74
2024/03/06 08:48:30;;;;;;;233.02;37.30;;;6.20;99.90;;;;;;5078629;28;20564;-75
2024/03/06 08:50:55;;;;;;;292.77;40.00;;;6.20;99.90;;;;;;5071858;28;20033;-75
2024/03/06 08:53:21;;;;;;;259.95;35.20;;;6.20;99.90;;;;;;5077884;28;20040;-74
2024/03/06 08:55:47;;;;;;;140.05;33.05;;;6.20;99.90;;;;;;5088427;28;20062;-73
2024/03/06 08:58:13;;;;;;;323.83;40.78;;;6.30;99.90;;;;;;5089056;28;20547;-75
2024/03/06 09:00:39;;;;;;;235.43;37.05;;;6.40;99.90;;;;;;5065796;28;20008;-74
2024/03/06 09:03:05;;;;;;;122.28;34.42;;;6.30;99.90;;;;;;5081937;28;20089;-75
2024/03/06 09:05:31;;;;;;;208.00;36.30;;;6.40;99.90;;;;;;5088162;28;20024;-75
2024/03/06 09:07:57;;;;;;;142.57;32.88;;;6.40;99.90;;;;;;5088593;28;20032;-75
2024/03/06 09:10:23;;;;;;;142.18;32.60;;;6.40;99.90;;;;;;5079144;28;20040;-75
2024/03/06 09:12:48;;;;;;;158.70;34.10;;;6.40;99.90;;;;;;5084842;28;20050;-74
2024/03/06 09:15:16;;;;;;;147.30;34.55;;;6.40;99.90;;;;;;5071350;28;20078;-74
2024/03/06 09:17:42;;;;;;;148.45;33.85;;;6.50;99.90;;;;;;5061930;28;20023;-75
2024/03/06 09:20:11;;;;;;;149.52;38.53;;;6.50;99.90;;;;;;5068512;28;20020;-74
2024/03/06 09:22:41;;;;;;;199.65;35.03;;;6.50;99.90;;;;;;5077061;28;20070;-74
2024/03/06 09:25:07;;;;;;;254.35;36.47;;;6.50;99.90;;;;;;5081429;28;20088;-74
2024/03/06 09:27:33;;;;;;;205.50;36.67;;;6.50;99.90;;;;;;5070336;28;20020;-73
2024/03/06 09:29:59;;;;;;;131.57;31.02;;;6.50;99.90;;;;;;5087377;28;20020;-74
2024/03/06 09:32:26;;;;;;;162.55;34.72;;;6.50;99.90;;;;;;5088716;28;20056;-74
2024/03/06 09:34:52;;;;;;;130.55;37.20;;;6.50;99.90;;;;;;5087550;28;20032;-74
2024/03/06 09:37:18;;;;;;;128.27;33.25;;;6.50;99.90;;;;;;5095701;28;20404;-74
2024/03/06 09:39:47;;;;;;;168.05;36.00;;;6.50;99.90;;;;;;5061291;28;20091;-72
2024/03/06 09:42:13;;;;;;;129.00;35.45;;;6.60;99.90;;;;;;5074363;28;20037;-76
2024/03/06 09:44:39;;;;;;;121.97;34.92;;;6.60;99.90;;;;;;5080003;28;20131;-73
2024/03/06 09:47:07;;;;;;;102.88;34.22;;;6.70;99.90;;;;;;5053710;28;20087;-74
2024/03/06 09:49:34;;;;;;;115.05;34.33;;;6.80;99.90;;;;;;5076220;28;20047;-74
2024/03/06 09:52:00;;;;;;;118.57;33.60;;;6.80;99.90;;;;;;5081628;28;20039;-72
2024/03/06 09:54:26;;;;;;;129.93;36.25;;;6.90;99.90;;;;;;5078597;28;20047;-73
2024/03/06 09:56:55;;;;;;;112.00;33.63;;;6.90;99.90;;;;;;5072192;28;20032;-73
2024/03/06 09:59:21;;;;;;;96.95;36.13;;;6.90;99.90;;;;;;5077009;28;20067;-73
2024/03/06 10:01:57;;;;;;;109.53;33.75;;;6.90;99.90;;;;;;5068341;28;20060;-71
2024/03/06 10:04:27;;;;;;;135.45;36.03;;;7.00;99.90;;;;;;5061596;28;20032;-73
2024/03/06 10:06:55;;;;;;;97.85;35.42;;;7.00;99.90;;;;;;5081507;28;20043;-74
2024/03/06 10:09:21;;;;;;;84.15;34.25;;;7.00;99.90;;;;;;5050888;28;20021;-74
2024/03/06 10:11:47;;;;;;;96.97;34.05;;;7.10;99.90;;;;;;5084185;28;22391;-74
2024/03/06 10:14:14;;;;;;;77.22;31.73;;;7.20;99.90;;;;;;5086507;28;20099;-73
2024/03/06 10:16:53;;;;;;;87.03;34.78;;;7.30;99.90;;;;;;5066768;28;20530;-73
2024/03/06 10:19:20;;;;;;;80.43;33.95;;;7.40;99.90;;;;;;5078243;28;20024;-74
2024/03/06 10:21:50;;;;;;;64.30;32.00;;;7.40;99.90;;;;;;5068425;28;20074;-75
2024/03/06 10:24:28;;;;;;;87.63;35.53;;;7.50;99.90;;;;;;5070864;28;20384;-74
2024/03/06 10:26:59;;;;;;;84.60;33.20;;;7.50;99.90;;;;;;5080195;28;20020;-75
2024/03/06 10:29:27;;;;;;;90.43;35.22;;;7.50;99.90;;;;;;5072592;28;20039;-75
2024/03/06 10:31:57;;;;;;;87.88;35.83;;;7.50;99.90;;;;;;5077252;28;20024;-74
2024/03/06 10:34:25;;;;;;;90.93;38.22;;;7.50;99.90;;;;;;5075212;28;20440;-74
2024/03/06 10:36:58;;;;;;;108.38;36.13;;;7.50;99.90;;;;;;5081333;28;20023;-73
2024/03/06 10:39:25;;;;;;;83.93;33.90;;;7.60;99.90;;;;;;5084674;28;20027;-74
2024/03/06 10:41:55;;;;;;;76.97;34.13;;;7.60;99.90;;;;;;5081150;28;20166;-74
2024/03/06 10:44:27;;;;;;;87.75;35.42;;;7.60;99.90;;;;;;5082018;28;20111;-74
2024/03/06 10:47:01;;;;;;;77.20;31.33;;;7.70;99.90;;;;;;5062003;28;20087;-74
2024/03/06 10:49:29;;;;;;;84.28;31.45;;;7.70;99.90;;;;;;5075556;28;20515;-74
2024/03/06 10:51:59;;;;;;;89.85;36.97;;;7.60;99.90;;;;;;5075546;28;20037;-74
2024/03/06 10:54:29;;;;;;;93.07;37.47;;;7.60;99.90;;;;;;5072252;28;20090;-74
2024/03/06 10:56:55;;;;;;;86.10;37.15;;;7.60;99.90;;;;;;5074948;28;20052;-74
2024/03/06 10:59:24;;;;;;;88.60;37.20;;;7.70;99.90;;;;;;5053636;28;20016;-75
2024/03/06 11:01:50;;;;;;;80.07;37.22;;;7.80;99.90;;;;;;5085357;28;20059;-74
2024/03/06 11:04:16;;;;;;;81.53;33.90;;;7.80;99.90;;;;;;5086038;28;20206;-74
2024/03/06 11:06:41;;;;;;;74.55;33.72;;;7.90;99.90;;;;;;5070112;28;20052;-75
2024/03/06 11:09:11;;;;;;;71.85;32.40;;;8.00;99.90;;;;;;5080050;28;20056;-74
2024/03/06 11:11:53;;;;;;;71.65;33.50;;;8.00;99.90;;;;;;5078907;28;20107;-74
2024/03/06 11:14:22;;;;;;;78.93;35.85;;;8.10;99.90;;;;;;5061203;28;20481;-74
2024/03/06 11:17:01;;;;;;;77.60;34.25;;;8.10;99.90;;;;;;5077546;28;20393;-74
2024/03/06 11:19:31;;;;;;;82.82;33.83;;;8.20;99.90;;;;;;5076387;28;20020;-74
2024/03/06 11:21:57;;;;;;;85.28;36.22;;;8.20;99.90;;;;;;5079605;28;20093;-74
2024/03/06 11:24:31;;;;;;;94.38;36.70;;;8.30;99.90;;;;;;5077737;28;20020;-73
2024/03/06 11:27:00;;;;;;;86.03;37.83;;;8.30;99.90;;;;;;5081372;28;20081;-76
2024/03/06 11:29:29;;;;;;;91.65;36.65;;;8.30;99.90;;;;;;5077987;28;20028;-74
2024/03/06 11:32:07;;;;;;;86.90;35.15;;;8.30;99.90;;;;;;5081445;28;20087;-75
2024/03/06 11:34:34;;;;;;;88.90;34.47;;;8.40;99.90;;;;;;5084395;28;20069;-76
2024/03/06 11:37:04;;;;;;;93.20;38.70;;;8.40;99.90;;;;;;5081715;28;20048;-75
2024/03/06 11:39:34;;;;;;;81.30;34.47;;;8.40;99.90;;;;;;5073848;28;20042;-75
2024/03/06 11:41:59;;;;;;;81.75;35.80;;;8.50;99.90;;;;;;5069643;28;20043;-74
2024/03/06 11:44:28;;;;;;;74.97;33.85;;;8.50;99.90;;;;;;5067942;28;20067;-75
2024/03/06 11:47:04;;;;;;;70.85;33.58;;;8.60;99.90;;;;;;5075384;28;20357;-75
2024/03/06 11:49:33;;;;;;;64.38;30.52;;;8.60;99.90;;;;;;5076073;28;20121;-75
2024/03/06 11:52:08;;;;;;;70.65;36.05;;;8.60;99.90;;;;;;5088211;28;20114;-75
2024/03/06 11:54:33;;;;;;;67.32;32.30;;;8.60;99.90;;;;;;5088997;28;20024;-76
2024/03/06 11:57:02;;;;;;;73.55;34.38;;;8.60;99.90;;;;;;5101003;28;20047;-75
2024/03/06 11:59:32;;;;;;;74.40;35.20;;;8.70;99.90;;;;;;5088345;28;20028;-76
2024/03/06 12:02:02;;;;;;;76.22;37.25;;;8.80;99.90;;;;;;5071453;28;20035;-76
2024/03/06 12:04:30;;;;;;;72.30;32.80;;;8.80;99.90;;;;;;5082212;28;20525;-76
2024/03/06 12:07:00;;;;;;;65.78;34.80;;;8.90;99.90;;;;;;5080354;28;20050;-76
2024/03/06 12:09:26;;;;;;;73.68;34.13;;;9.00;99.90;;;;;;5072303;28;20024;-76
2024/03/06 12:11:52;;;;;;;69.43;35.30;;;9.10;99.90;;;;;;5072211;28;20060;-75
2024/03/06 12:14:22;;;;;;;69.75;34.20;;;9.20;99.90;;;;;;5086519;28;20512;-75
2024/03/06 12:17:15;;;;;;;63.33;33.88;;;9.30;99.90;;;;;;5079276;28;20031;-76
2024/03/06 12:19:44;;;;;;;65.68;32.75;;;9.40;99.90;;;;;;5070236;28;20035;-76
2024/03/06 12:22:11;;;;;;;59.22;30.35;;;9.40;99.90;;;;;;5064661;28;20039;-75
2024/03/06 12:24:37;;;;;;;57.50;29.77;;;9.50;99.90;;;;;;5078493;28;20085;-75
2024/03/06 12:27:04;;;;;;;59.28;31.95;;;9.60;99.90;;;;;;5078096;28;20036;-75
2024/03/06 12:29:34;;;;;;;65.15;35.05;;;9.80;99.90;;;;;;5079491;28;20353;-76
2024/03/06 12:32:00;;;;;;;56.63;32.28;;;10.00;99.90;;;;;;5073830;28;20424;-75